Time;durP1;ratioP1;P1;durP2;ratioP2;P2;SDS_P1;SDS_P2;PMS_P1;PMS_P2;Temp;Humidity;BMP_temperature;BMP_pressure;BME280_temperature;BME280_humidity;BME280_pressure;Samples;Min_cycle;Max_cycle;Signal;HPM_P1;HPM_P2
2024/02/22 00:00:35;;;;;;;1.67;0.45;;;;;;;;;;5014454;28;20022;-55
2024/02/22 00:03:00;;;;;;;1.13;0.40;;;;;;;;;;5012679;28;20041;-56
2024/02/22 00:05:26;;;;;;;2.17;0.70;;;;;;;;;;5013668;28;20117;-57
2024/02/22 00:07:51;;;;;;;2.05;0.40;;;;;;;;;;5014182;28;20080;-56
2024/02/22 00:10:17;;;;;;;1.60;0.40;;;;;;;;;;5013762;28;20052;-56
2024/02/22 00:12:42;;;;;;;1.30;0.40;;;;;;;;;;5013592;28;20144;-56
2024/02/22 00:15:10;;;;;;;1.90;0.53;;;;;;;;;;5013842;28;20448;-57
2024/02/22 00:17:35;;;;;;;2.13;0.50;;;;;;;;;;5013068;28;20109;-56
2024/02/22 00:20:02;;;;;;;2.50;0.50;;;;;;;;;;5011510;28;20101;-57
2024/02/22 00:22:27;;;;;;;4.15;0.70;;;;;;;;;;5013535;28;20076;-55
2024/02/22 00:24:52;;;;;;;2.83;0.70;;;;;;;;;;5013350;28;20017;-57
2024/02/22 00:27:20;;;;;;;3.78;0.60;;;;;;;;;;5013273;28;20041;-57
2024/02/22 00:29:45;;;;;;;3.00;0.50;;;;;;;;;;5012113;28;20474;-55
2024/02/22 00:32:10;;;;;;;1.73;0.55;;;;;;;;;;5013422;28;20152;-56
2024/02/22 00:34:35;;;;;;;1.63;0.45;;;;;;;;;;5010147;28;20385;-56
2024/02/22 00:37:00;;;;;;;1.30;0.35;;;;;;;;;;5014148;28;20021;-55
2024/02/22 00:39:25;;;;;;;2.28;0.47;;;;;;;;;;5013972;28;20042;-56
2024/02/22 00:41:51;;;;;;;1.67;0.43;;;;;;;;;;5013795;28;20490;-56
2024/02/22 00:44:17;;;;;;;0.97;0.23;;;;;;;;;;5016457;28;20038;-56
2024/02/22 00:46:42;;;;;;;2.00;0.40;;;;;;;;;;5016947;28;20026;-57
2024/02/22 00:49:07;;;;;;;1.42;0.52;;;;;;;;;;5015560;28;20044;-57
2024/02/22 00:51:32;;;;;;;3.17;0.47;;;;;;;;;;5013143;28;20026;-56
2024/02/22 00:53:57;;;;;;;2.25;0.47;;;;;;;;;;5013486;28;20014;-56
2024/02/22 00:56:24;;;;;;;1.60;0.43;;;;;;;;;;5020582;28;20060;-56
2024/02/22 00:58:49;;;;;;;1.33;0.45;;;;;;;;;;5031744;28;20028;-57
2024/02/22 01:01:14;;;;;;;3.17;0.60;;;;;;;;;;5032870;28;20025;-57
2024/02/22 01:03:40;;;;;;;2.55;0.50;;;;;;;;;;5031972;28;20478;-57
2024/02/22 01:06:09;;;;;;;2.33;0.50;;;;;;;;;;5033028;28;20029;-56
2024/02/22 01:08:36;;;;;;;3.38;0.60;;;;;;;;;;5032687;28;20435;-56
2024/02/22 01:11:02;;;;;;;4.18;0.80;;;;;;;;;;5032558;28;20013;-57
2024/02/22 01:13:27;;;;;;;1.92;0.68;;;;;;;;;;5032025;28;20028;-57
2024/02/22 01:15:52;;;;;;;3.58;0.90;;;;;;;;;;5025964;28;20009;-56
2024/02/22 01:18:17;;;;;;;3.50;0.80;;;;;;;;;;5012501;28;20050;-57
2024/02/22 01:20:42;;;;;;;2.97;0.98;;;;;;;;;;5012608;28;20084;-55
2024/02/22 01:23:08;;;;;;;3.90;0.90;;;;;;;;;;5012432;28;20022;-56
2024/02/22 01:25:33;;;;;;;9.57;1.23;;;;;;;;;;5012173;28;20460;-56
2024/02/22 01:27:58;;;;;;;3.43;1.07;;;;;;;;;;5009866;28;20041;-60
2024/02/22 01:30:23;;;;;;;6.45;1.15;;;;;;;;;;5012116;28;20101;-56
2024/02/22 01:32:48;;;;;;;5.03;1.30;;;;;;;;;;5012005;28;20022;-55
2024/02/22 01:35:14;;;;;;;3.87;0.97;;;;;;;;;;5012238;28;20097;-56
2024/02/22 01:37:39;;;;;;;4.60;1.30;;;;;;;;;;5012404;28;20029;-56
2024/02/22 01:40:08;;;;;;;5.47;1.17;;;;;;;;;;5010909;28;20021;-57
2024/02/22 01:42:33;;;;;;;3.80;1.20;;;;;;;;;;5011737;28;20029;-57
2024/02/22 01:45:02;;;;;;;4.78;1.20;;;;;;;;;;5012154;28;20018;-57
2024/02/22 01:47:27;;;;;;;6.85;1.50;;;;;;;;;;4997251;28;20022;-56
2024/02/22 01:49:52;;;;;;;4.97;1.20;;;;;;;;;;4992877;28;20041;-56
2024/02/22 01:52:19;;;;;;;6.18;1.35;;;;;;;;;;4994518;28;20034;-57
2024/02/22 01:54:44;;;;;;;4.57;1.25;;;;;;;;;;5001590;28;20057;-56
2024/02/22 01:57:10;;;;;;;5.07;1.40;;;;;;;;;;5022915;28;20624;-57
2024/02/22 01:59:35;;;;;;;4.70;1.53;;;;;;;;;;5034190;28;20079;-58
2024/02/22 02:02:00;;;;;;;6.87;1.30;;;;;;;;;;5031431;28;20033;-57
2024/02/22 02:04:25;;;;;;;5.93;1.73;;;;;;;;;;5016824;28;20034;-56
2024/02/22 02:06:50;;;;;;;5.45;1.27;;;;;;;;;;5021914;28;20022;-57
2024/02/22 02:09:16;;;;;;;5.73;1.53;;;;;;;;;;5010283;28;20054;-56
2024/02/22 02:11:44;;;;;;;5.93;1.50;;;;;;;;;;4995226;28;20390;-55
2024/02/22 02:14:09;;;;;;;5.82;1.73;;;;;;;;;;4995467;28;20016;-57
2024/02/22 02:16:34;;;;;;;4.15;1.27;;;;;;;;;;5011646;28;20014;-56
2024/02/22 02:18:59;;;;;;;5.23;1.50;;;;;;;;;;5011150;28;20017;-57
2024/02/22 02:21:32;;;;;;;4.97;1.77;;;;;;;;;;5011328;28;20096;-56
2024/02/22 02:24:21;;;;;;;5.03;1.45;;;;;;;;;;5011233;28;20041;-56
2024/02/22 02:26:46;;;;;;;6.38;1.63;;;;;;;;;;5011214;28;20048;-57
2024/02/22 02:29:11;;;;;;;4.40;1.20;;;;;;;;;;5011299;28;20453;-56
2024/02/22 02:31:37;;;;;;;4.32;1.50;;;;;;;;;;5010417;28;20033;-56
2024/02/22 02:34:02;;;;;;;5.70;1.30;;;;;;;;;;5011233;28;20101;-57
2024/02/22 02:36:27;;;;;;;4.67;1.57;;;;;;;;;;5011269;28;20026;-56
2024/02/22 02:38:53;;;;;;;5.82;1.40;;;;;;;;;;5011292;28;20857;-57
2024/02/22 02:41:18;;;;;;;5.88;1.20;;;;;;;;;;5011213;28;20025;-55
2024/02/22 02:43:43;;;;;;;5.20;1.50;;;;;;;;;;5011179;28;20081;-57
2024/02/22 02:46:09;;;;;;;4.53;1.33;;;;;;;;;;5011553;28;20502;-55
2024/02/22 02:48:34;;;;;;;4.75;1.27;;;;;;;;;;5011357;28;20049;-56
2024/02/22 02:50:59;;;;;;;4.83;1.43;;;;;;;;;;5011195;28;20064;-56
2024/02/22 02:53:24;;;;;;;4.80;1.17;;;;;;;;;;5011900;28;20080;-56
2024/02/22 02:55:49;;;;;;;6.33;1.57;;;;;;;;;;5014657;28;20022;-56
2024/02/22 02:58:15;;;;;;;4.70;1.25;;;;;;;;;;5030925;28;20099;-55
2024/02/22 03:00:40;;;;;;;3.50;1.23;;;;;;;;;;5031228;28;20383;-55
2024/02/22 03:03:07;;;;;;;6.45;1.90;;;;;;;;;;5031610;28;20516;-56
2024/02/22 03:05:32;;;;;;;3.78;1.20;;;;;;;;;;5030546;28;20562;-56
2024/02/22 03:07:58;;;;;;;4.78;1.40;;;;;;;;;;5029643;28;20040;-56
2024/02/22 03:10:23;;;;;;;4.20;1.27;;;;;;;;;;5030691;28;20025;-56
2024/02/22 03:12:49;;;;;;;4.65;1.30;;;;;;;;;;5029908;28;20022;-56
2024/02/22 03:15:14;;;;;;;4.72;1.40;;;;;;;;;;5009462;28;20022;-56
2024/02/22 03:17:39;;;;;;;4.53;1.50;;;;;;;;;;5013049;28;20022;-56
2024/02/22 03:20:09;;;;;;;3.77;1.07;;;;;;;;;;5014293;28;20101;-56
2024/02/22 03:22:35;;;;;;;4.85;1.15;;;;;;;;;;5016774;28;20460;-57
2024/02/22 03:25:00;;;;;;;6.25;1.25;;;;;;;;;;5016457;28;20034;-56
2024/02/22 03:27:25;;;;;;;4.27;1.10;;;;;;;;;;5016545;28;20516;-56
2024/02/22 03:29:51;;;;;;;5.25;1.20;;;;;;;;;;5015720;28;20466;-56
2024/02/22 03:32:16;;;;;;;4.28;1.02;;;;;;;;;;5015630;28;20022;-57
2024/02/22 03:34:41;;;;;;;4.45;1.20;;;;;;;;;;5014766;28;20038;-57
2024/02/22 03:37:07;;;;;;;3.00;0.90;;;;;;;;;;5015328;28;20056;-57
2024/02/22 03:39:32;;;;;;;3.78;1.10;;;;;;;;;;5015092;28;20030;-57
2024/02/22 03:41:57;;;;;;;3.53;1.00;;;;;;;;;;5013116;28;20014;-57
2024/02/22 03:44:22;;;;;;;4.15;1.00;;;;;;;;;;5014695;28;20046;-56
2024/02/22 03:46:48;;;;;;;3.60;0.90;;;;;;;;;;5014337;28;20528;-57
2024/02/22 03:49:14;;;;;;;4.45;1.00;;;;;;;;;;5013791;28;20658;-58
2024/02/22 03:51:39;;;;;;;4.87;1.00;;;;;;;;;;5013996;28;20026;-57
2024/02/22 03:54:04;;;;;;;2.37;0.87;;;;;;;;;;5014089;28;20056;-56
2024/02/22 03:56:30;;;;;;;3.13;0.90;;;;;;;;;;5022799;28;20017;-56
2024/02/22 03:58:55;;;;;;;3.20;1.00;;;;;;;;;;5033733;28;20449;-56
2024/02/22 04:01:20;;;;;;;2.80;0.80;;;;;;;;;;5033560;28;20024;-56
2024/02/22 04:03:46;;;;;;;2.67;0.80;;;;;;;;;;5033602;28;20378;-56
2024/02/22 04:06:11;;;;;;;2.70;0.80;;;;;;;;;;5034716;28;20120;-57
2024/02/22 04:08:36;;;;;;;2.73;0.90;;;;;;;;;;5036310;28;20017;-57
2024/02/22 04:11:02;;;;;;;2.97;0.80;;;;;;;;;;5036630;28;20476;-57
2024/02/22 04:13:27;;;;;;;3.30;1.00;;;;;;;;;;5023039;28;20029;-57
2024/02/22 04:15:52;;;;;;;3.07;0.80;;;;;;;;;;5019581;28;20014;-56
2024/02/22 04:18:19;;;;;;;3.45;0.95;;;;;;;;;;5022996;28;20022;-57
2024/02/22 04:20:44;;;;;;;3.92;0.90;;;;;;;;;;5025009;28;20022;-57
2024/02/22 04:23:09;;;;;;;3.25;1.10;;;;;;;;;;5019375;28;20036;-56
2024/02/22 04:25:34;;;;;;;3.75;1.10;;;;;;;;;;5024948;28;20038;-56
2024/02/22 04:28:00;;;;;;;4.27;1.40;;;;;;;;;;5023395;28;20059;-56
2024/02/22 04:30:25;;;;;;;4.85;1.10;;;;;;;;;;5015915;28;20049;-56
2024/02/22 04:32:51;;;;;;;3.83;1.00;;;;;;;;;;5012415;28;20030;-56
2024/02/22 04:35:16;;;;;;;2.85;0.90;;;;;;;;;;5013556;28;20025;-56
2024/02/22 04:37:42;;;;;;;3.57;1.20;;;;;;;;;;5014388;28;20367;-55
2024/02/22 04:40:07;;;;;;;3.47;0.90;;;;;;;;;;5013850;28;20569;-55
2024/02/22 04:42:33;;;;;;;4.05;1.35;;;;;;;;;;5013165;28;20108;-56
2024/02/22 04:44:58;;;;;;;4.05;1.20;;;;;;;;;;5013064;28;20028;-56
2024/02/22 04:47:23;;;;;;;3.92;1.10;;;;;;;;;;5013411;28;20030;-55
2024/02/22 04:49:50;;;;;;;3.77;0.90;;;;;;;;;;5013420;28;20425;-56
2024/02/22 04:52:15;;;;;;;3.42;1.02;;;;;;;;;;5012936;28;20438;-55
2024/02/22 04:54:40;;;;;;;3.47;1.20;;;;;;;;;;5013032;28;20056;-56
2024/02/22 04:57:05;;;;;;;4.90;1.30;;;;;;;;;;5026834;28;20099;-56
2024/02/22 04:59:31;;;;;;;4.05;1.10;;;;;;;;;;5033076;28;20039;-57
2024/02/22 05:01:56;;;;;;;3.30;0.98;;;;;;;;;;5017399;28;20030;-57
2024/02/22 05:04:22;;;;;;;2.95;1.00;;;;;;;;;;4993201;28;20026;-56
2024/02/22 05:06:47;;;;;;;3.47;0.90;;;;;;;;;;5008486;28;20073;-56
2024/02/22 05:09:13;;;;;;;7.10;1.23;;;;;;;;;;4993025;28;20386;-59
2024/02/22 05:11:45;;;;;;;4.65;1.17;;;;;;;;;;5002129;28;20014;-56
2024/02/22 05:14:10;;;;;;;2.78;1.08;;;;;;;;;;5012737;28;20037;-56
2024/02/22 05:16:36;;;;;;;3.20;1.10;;;;;;;;;;5013270;28;20037;-57
2024/02/22 05:19:02;;;;;;;3.78;1.23;;;;;;;;;;5013684;28;20018;-58
2024/02/22 05:21:27;;;;;;;3.03;1.10;;;;;;;;;;5012417;28;20041;-56
2024/02/22 05:23:52;;;;;;;2.97;1.07;;;;;;;;;;5011982;28;20024;-57
2024/02/22 05:26:17;;;;;;;4.77;1.20;;;;;;;;;;5012424;28;20706;-56
2024/02/22 05:28:43;;;;;;;3.23;1.10;;;;;;;;;;5012398;28;20037;-56
2024/02/22 05:31:19;;;;;;;4.15;1.30;;;;;;;;;;5012139;28;20030;-56
2024/02/22 05:33:44;;;;;;;4.22;1.20;;;;;;;;;;5011611;28;20017;-57
2024/02/22 05:36:10;;;;;;;3.90;1.20;;;;;;;;;;5012238;28;20573;-56
2024/02/22 05:38:35;;;;;;;3.22;1.25;;;;;;;;;;5012856;28;20045;-57
2024/02/22 05:41:00;;;;;;;3.33;1.10;;;;;;;;;;5008364;28;20021;-56
2024/02/22 05:43:25;;;;;;;2.60;0.90;;;;;;;;;;4991968;28;20034;-57
2024/02/22 05:45:50;;;;;;;3.00;1.08;;;;;;;;;;4992479;28;20033;-56
2024/02/22 05:48:16;;;;;;;3.03;1.17;;;;;;;;;;4992156;28;20113;-57
2024/02/22 05:50:41;;;;;;;3.63;1.20;;;;;;;;;;4996094;28;20022;-56
2024/02/22 05:53:06;;;;;;;3.53;1.00;;;;;;;;;;5009613;28;20030;-56
2024/02/22 05:55:31;;;;;;;3.17;1.20;;;;;;;;;;5010964;28;20542;-57
2024/02/22 05:57:56;;;;;;;2.97;1.20;;;;;;;;;;5012022;28;20021;-56
2024/02/22 06:00:24;;;;;;;3.63;1.20;;;;;;;;;;5011562;28;20030;-57
2024/02/22 06:02:49;;;;;;;3.85;1.08;;;;;;;;;;5011565;28;20028;-56
2024/02/22 06:05:15;;;;;;;3.88;1.10;;;;;;;;;;5006535;28;20022;-56
2024/02/22 06:07:40;;;;;;;3.28;1.15;;;;;;;;;;5008207;28;20034;-56
2024/02/22 06:10:08;;;;;;;3.20;1.10;;;;;;;;;;5008138;28;20474;-58
2024/02/22 06:12:33;;;;;;;2.22;0.90;;;;;;;;;;5005276;28;20027;-57
2024/02/22 06:14:59;;;;;;;2.60;0.90;;;;;;;;;;5008364;28;20136;-56
2024/02/22 06:17:24;;;;;;;2.67;1.00;;;;;;;;;;5003405;28;20667;-56
2024/02/22 06:19:49;;;;;;;4.25;1.20;;;;;;;;;;4995370;28;20054;-55
2024/02/22 06:22:14;;;;;;;4.82;0.95;;;;;;;;;;5020738;28;20022;-56
2024/02/22 06:24:39;;;;;;;3.15;1.00;;;;;;;;;;5015448;28;20552;-56
2024/02/22 06:27:04;;;;;;;4.22;1.08;;;;;;;;;;5018325;28;20022;-55
2024/02/22 06:29:30;;;;;;;3.13;1.00;;;;;;;;;;5011833;28;20033;-56
2024/02/22 06:31:56;;;;;;;3.13;1.20;;;;;;;;;;5011755;28;20026;-57
2024/02/22 06:34:21;;;;;;;3.03;1.00;;;;;;;;;;5010545;28;20418;-56
2024/02/22 06:36:46;;;;;;;3.28;1.00;;;;;;;;;;5016795;28;20034;-56
2024/02/22 06:39:11;;;;;;;2.70;1.00;;;;;;;;;;5015530;28;20038;-57
2024/02/22 06:41:36;;;;;;;2.90;1.10;;;;;;;;;;5012933;28;20029;-57
2024/02/22 06:44:01;;;;;;;2.38;0.75;;;;;;;;;;5013681;28;20036;-57
2024/02/22 06:46:27;;;;;;;3.93;1.10;;;;;;;;;;5012400;28;20030;-56
2024/02/22 06:48:53;;;;;;;3.70;1.00;;;;;;;;;;5012830;28;20430;-57
2024/02/22 06:51:20;;;;;;;3.63;1.00;;;;;;;;;;5007910;28;20030;-56
2024/02/22 06:53:46;;;;;;;3.85;1.10;;;;;;;;;;4994462;28;20033;-57
2024/02/22 06:56:11;;;;;;;2.00;0.77;;;;;;;;;;4996066;28;20023;-57
2024/02/22 06:58:36;;;;;;;3.72;1.00;;;;;;;;;;4995939;28;20421;-57
2024/02/22 07:01:01;;;;;;;3.00;0.93;;;;;;;;;;4995631;28;20022;-56
2024/02/22 07:03:28;;;;;;;2.70;0.90;;;;;;;;;;5009318;28;20038;-55
2024/02/22 07:05:53;;;;;;;;;;;;;;;;;;5004074;28;20061;-56
2024/02/22 07:08:19;;;;;;;2.92;1.00;;;;;;;;;;5013868;28;19959;-57
2024/02/22 07:10:44;;;;;;;4.13;1.20;;;;;;;;;;5014665;28;20091;-57
2024/02/22 07:13:09;;;;;;;3.13;1.00;;;;;;;;;;5011824;28;20112;-55
2024/02/22 07:15:34;;;;;;;3.30;1.10;;;;;;;;;;5019922;28;20045;-56
2024/02/22 07:17:59;;;;;;;3.40;0.93;;;;;;;;;;5011451;28;20037;-57
2024/02/22 07:20:24;;;;;;;4.57;1.00;;;;;;;;;;5011609;28;20026;-57
2024/02/22 07:22:52;;;;;;;3.83;1.10;;;;;;;;;;5010782;28;20547;-56
2024/02/22 07:25:18;;;;;;;4.07;1.02;;;;;;;;;;5007230;28;20021;-57
2024/02/22 07:27:43;;;;;;;2.97;0.90;;;;;;;;;;5011288;28;20040;-57
2024/02/22 07:30:09;;;;;;;3.28;0.82;;;;;;;;;;5011640;28;20022;-56
2024/02/22 07:32:34;;;;;;;2.80;0.80;;;;;;;;;;5011648;28;20033;-55
2024/02/22 07:35:00;;;;;;;4.37;1.00;;;;;;;;;;5012965;28;20026;-56
2024/02/22 07:37:25;;;;;;;3.28;1.00;;;;;;;;;;5009829;28;20441;-56
2024/02/22 07:39:53;;;;;;;3.47;1.00;;;;;;;;;;5014127;28;20089;-56
2024/02/22 07:42:19;;;;;;;3.05;1.10;;;;;;;;;;5014162;28;20401;-57
2024/02/22 07:44:44;;;;;;;4.32;1.25;;;;;;;;;;5013993;28;20101;-56
2024/02/22 07:47:10;;;;;;;4.23;1.10;;;;;;;;;;5014490;28;20097;-56
2024/02/22 07:49:35;;;;;;;3.17;1.08;;;;;;;;;;5014388;28;20014;-56
2024/02/22 07:52:00;;;;;;;4.10;1.20;;;;;;;;;;5013947;28;20030;-57
2024/02/22 07:54:26;;;;;;;6.85;1.40;;;;;;;;;;5014081;28;20081;-57
2024/02/22 07:56:51;;;;;;;3.07;1.10;;;;;;;;;;5014356;28;20504;-56
2024/02/22 07:59:16;;;;;;;5.43;1.30;;;;;;;;;;5013696;28;20034;-56
2024/02/22 08:01:41;;;;;;;3.55;1.30;;;;;;;;;;5013756;28;20026;-57
2024/02/22 08:04:07;;;;;;;3.13;1.10;;;;;;;;;;5005682;28;20633;-57
2024/02/22 08:06:32;;;;;;;3.45;1.13;;;;;;;;;;4995207;28;20065;-56
2024/02/22 08:08:57;;;;;;;5.40;1.27;;;;;;;;;;5012102;28;20023;-58
2024/02/22 08:11:24;;;;;;;4.85;1.30;;;;;;;;;;5013739;28;20030;-57
2024/02/22 08:13:49;;;;;;;5.07;1.27;;;;;;;;;;5013673;28;20014;-57
2024/02/22 08:16:15;;;;;;;3.93;1.40;;;;;;;;;;5009469;28;20037;-56
2024/02/22 08:18:40;;;;;;;4.83;1.40;;;;;;;;;;5013932;28;20048;-58
2024/02/22 08:21:06;;;;;;;3.55;1.60;;;;;;;;;;4995843;28;20387;-56
2024/02/22 08:23:31;;;;;;;6.00;3.08;;;;;;;;;;4997914;28;20026;-57
2024/02/22 08:25:56;;;;;;;7.32;4.00;;;;;;;;;;4996645;28;20038;-56
2024/02/22 08:28:25;;;;;;;7.45;3.85;;;;;;;;;;4997253;28;20034;-57
2024/02/22 08:30:51;;;;;;;7.45;3.90;;;;;;;;;;4997062;28;20441;-57
2024/02/22 08:33:16;;;;;;;6.60;3.83;;;;;;;;;;4996115;28;20030;-58
2024/02/22 08:35:41;;;;;;;6.40;4.27;;;;;;;;;;4993881;28;20075;-57
2024/02/22 08:38:07;;;;;;;8.68;5.20;;;;;;;;;;4993906;28;20069;-55
2024/02/22 08:40:32;;;;;;;6.95;4.65;;;;;;;;;;4994674;28;20033;-55
2024/02/22 08:43:00;;;;;;;7.73;5.00;;;;;;;;;;4995264;28;20101;-56
2024/02/22 08:45:25;;;;;;;7.25;4.63;;;;;;;;;;4994403;28;20382;-56
2024/02/22 08:47:51;;;;;;;7.50;4.65;;;;;;;;;;4996888;28;20093;-57
2024/02/22 08:50:16;;;;;;;6.73;4.53;;;;;;;;;;4997759;28;20023;-56
2024/02/22 08:52:41;;;;;;;6.57;3.90;;;;;;;;;;5013884;28;20578;-56
2024/02/22 08:55:12;;;;;;;6.53;4.30;;;;;;;;;;4997889;28;20041;-58
2024/02/22 08:57:38;;;;;;;6.53;4.03;;;;;;;;;;5000400;28;20018;-57
2024/02/22 09:00:05;;;;;;;7.80;4.43;;;;;;;;;;5013280;28;20029;-57
2024/02/22 09:02:31;;;;;;;7.13;4.40;;;;;;;;;;5013144;28;20025;-57
2024/02/22 09:04:56;;;;;;;8.10;4.13;;;;;;;;;;5005749;28;20034;-57
2024/02/22 09:07:21;;;;;;;6.13;3.70;;;;;;;;;;5013266;28;20026;-56
2024/02/22 09:09:46;;;;;;;6.07;3.33;;;;;;;;;;5012952;28;20393;-56
2024/02/22 09:12:14;;;;;;;6.43;3.60;;;;;;;;;;5016289;28;20029;-55
2024/02/22 09:14:39;;;;;;;8.73;3.50;;;;;;;;;;5014522;28;20030;-57
2024/02/22 09:17:05;;;;;;;7.85;3.83;;;;;;;;;;5012652;28;20022;-57
2024/02/22 09:19:30;;;;;;;5.90;3.30;;;;;;;;;;5012365;28;20022;-57
2024/02/22 09:21:59;;;;;;;7.57;2.97;;;;;;;;;;5012940;28;20386;-57
2024/02/22 09:24:24;;;;;;;3.88;1.60;;;;;;;;;;5011431;28;20037;-57
2024/02/22 09:26:49;;;;;;;2.75;1.00;;;;;;;;;;5013146;28;20033;-56
2024/02/22 09:29:14;;;;;;;1.53;0.50;;;;;;;;;;5030156;28;20086;-55
2024/02/22 09:31:39;;;;;;;2.63;0.60;;;;;;;;;;5032925;28;20110;-57
2024/02/22 09:34:05;;;;;;;2.40;0.60;;;;;;;;;;5035284;28;20484;-57
2024/02/22 09:36:30;;;;;;;1.63;0.50;;;;;;;;;;5038582;28;20036;-56
2024/02/22 09:38:55;;;;;;;1.97;0.67;;;;;;;;;;5024945;28;20022;-57
2024/02/22 09:41:20;;;;;;;1.80;0.60;;;;;;;;;;5030093;28;20056;-55
2024/02/22 09:43:45;;;;;;;2.20;0.70;;;;;;;;;;5023540;28;20482;-57
2024/02/22 09:46:11;;;;;;;4.80;1.57;;;;;;;;;;5025315;28;20022;-58
2024/02/22 09:48:36;;;;;;;2.65;0.80;;;;;;;;;;5016830;28;20025;-57
2024/02/22 09:51:02;;;;;;;1.20;0.40;;;;;;;;;;5013785;28;20014;-57
2024/02/22 09:53:28;;;;;;;2.10;0.60;;;;;;;;;;5001735;28;20547;-56
2024/02/22 09:55:54;;;;;;;2.00;0.53;;;;;;;;;;4992980;28;20109;-57
2024/02/22 09:58:21;;;;;;;1.50;0.55;;;;;;;;;;5009327;28;20037;-56
2024/02/22 10:00:46;;;;;;;1.70;0.50;;;;;;;;;;5011548;28;20108;-56
2024/02/22 10:03:11;;;;;;;1.70;0.47;;;;;;;;;;5011911;28;20530;-56
2024/02/22 10:05:37;;;;;;;1.08;0.50;;;;;;;;;;5007864;28;20498;-56
2024/02/22 10:08:13;;;;;;;1.30;0.47;;;;;;;;;;4993723;28;20022;-58
2024/02/22 10:10:40;;;;;;;1.63;0.55;;;;;;;;;;4997045;28;20498;-56
2024/02/22 10:13:05;;;;;;;1.27;0.50;;;;;;;;;;4996908;28;20025;-58
2024/02/22 10:15:31;;;;;;;2.22;0.63;;;;;;;;;;4992455;28;20058;-57
2024/02/22 10:17:56;;;;;;;1.73;0.60;;;;;;;;;;4995271;28;20422;-57
2024/02/22 10:20:31;;;;;;;2.87;0.60;;;;;;;;;;5009969;28;20112;-56
2024/02/22 10:23:04;;;;;;;1.30;0.47;;;;;;;;;;4997236;28;20032;-56
2024/02/22 10:25:31;;;;;;;1.38;0.57;;;;;;;;;;5004438;28;20113;-57
2024/02/22 10:27:56;;;;;;;2.28;0.73;;;;;;;;;;5009862;28;20022;-56
2024/02/22 10:30:25;;;;;;;1.85;0.52;;;;;;;;;;5009373;28;20150;-56
2024/02/22 10:32:51;;;;;;;1.85;0.50;;;;;;;;;;4996077;28;20050;-57
2024/02/22 10:35:16;;;;;;;2.75;1.17;;;;;;;;;;4991637;28;20030;-56
2024/02/22 10:37:42;;;;;;;2.90;0.60;;;;;;;;;;4991891;28;20018;-57
2024/02/22 10:40:09;;;;;;;1.25;0.40;;;;;;;;;;4991525;28;20495;-56
2024/02/22 10:42:35;;;;;;;2.03;0.50;;;;;;;;;;4991386;28;20053;-57
2024/02/22 10:45:00;;;;;;;2.55;0.70;;;;;;;;;;4991218;28;20130;-58
2024/02/22 10:47:27;;;;;;;2.17;0.70;;;;;;;;;;4991910;28;20034;-56
2024/02/22 10:49:54;;;;;;;1.80;0.57;;;;;;;;;;4991650;28;20026;-57
2024/02/22 10:52:20;;;;;;;1.27;0.30;;;;;;;;;;4991851;28;20022;-57
2024/02/22 10:54:46;;;;;;;1.00;0.30;;;;;;;;;;4992079;28;20105;-58
2024/02/22 10:57:11;;;;;;;0.98;0.43;;;;;;;;;;4992357;28;20022;-57
2024/02/22 10:59:37;;;;;;;1.33;0.40;;;;;;;;;;5008242;28;20113;-58
2024/02/22 11:02:03;;;;;;;2.33;0.47;;;;;;;;;;5009073;28;20413;-57
2024/02/22 11:04:29;;;;;;;1.00;0.50;;;;;;;;;;4994400;28;20554;-57
2024/02/22 11:06:54;;;;;;;1.70;0.43;;;;;;;;;;4995951;28;20045;-55
2024/02/22 11:09:25;;;;;;;0.77;0.30;;;;;;;;;;4995476;28;20435;-58
2024/02/22 11:11:53;;;;;;;0.70;0.32;;;;;;;;;;4991049;28;20058;-58
2024/02/22 11:14:33;;;;;;;1.35;0.50;;;;;;;;;;4991514;28;20019;-58
2024/02/22 11:17:05;;;;;;;0.88;0.30;;;;;;;;;;4992016;28;20373;-57
2024/02/22 11:19:30;;;;;;;0.98;0.40;;;;;;;;;;4991366;28;20545;-56
2024/02/22 11:21:55;;;;;;;1.08;0.38;;;;;;;;;;4992133;28;20027;-58
2024/02/22 11:24:24;;;;;;;1.15;0.40;;;;;;;;;;4991433;28;20390;-58
2024/02/22 11:26:59;;;;;;;1.17;0.35;;;;;;;;;;4991407;28;20069;-57
2024/02/22 11:29:29;;;;;;;0.80;0.32;;;;;;;;;;4991121;28;20565;-58
2024/02/22 11:31:58;;;;;;;1.67;0.50;;;;;;;;;;4991284;28;20033;-57
2024/02/22 11:34:24;;;;;;;2.67;0.82;;;;;;;;;;4991210;28;20022;-56
2024/02/22 11:36:49;;;;;;;1.23;0.40;;;;;;;;;;4991188;28;20076;-57
2024/02/22 11:39:17;;;;;;;2.25;0.40;;;;;;;;;;4990945;28;20026;-56
2024/02/22 11:41:45;;;;;;;1.13;0.40;;;;;;;;;;4993135;28;20505;-56
2024/02/22 11:44:11;;;;;;;1.30;0.47;;;;;;;;;;4995615;28;20031;-56
2024/02/22 11:46:37;;;;;;;1.60;0.40;;;;;;;;;;4995740;28;20565;-58
2024/02/22 11:49:04;;;;;;;0.73;0.40;;;;;;;;;;4998039;28;20029;-56
2024/02/22 11:51:30;;;;;;;1.05;0.32;;;;;;;;;;4996419;28;20089;-61
2024/02/22 11:53:58;;;;;;;1.08;0.40;;;;;;;;;;4996597;28;20030;-58
2024/02/22 11:56:24;;;;;;;1.67;0.32;;;;;;;;;;4998422;28;20022;-58
2024/02/22 11:58:49;;;;;;;1.83;0.40;;;;;;;;;;4996840;28;20053;-58
2024/02/22 12:01:15;;;;;;;1.20;0.40;;;;;;;;;;4995551;28;20033;-58
2024/02/22 12:03:42;;;;;;;1.02;0.32;;;;;;;;;;5018508;28;20021;-57
2024/02/22 12:06:07;;;;;;;0.43;0.20;;;;;;;;;;5013816;28;20021;-57
2024/02/22 12:08:34;;;;;;;1.52;0.40;;;;;;;;;;5009984;28;20156;-57
2024/02/22 12:11:00;;;;;;;;;;;;;;;;;;4996372;28;20045;-57
2024/02/22 12:13:26;;;;;;;1.67;0.20;;;;;;;;;;4995759;28;20000;-58
2024/02/22 12:16:03;;;;;;;1.20;0.30;;;;;;;;;;4994641;28;20112;-57
2024/02/22 12:18:28;;;;;;;0.75;0.40;;;;;;;;;;4994495;28;20360;-57
2024/02/22 12:20:55;;;;;;;2.07;0.40;;;;;;;;;;4994276;28;20171;-56
2024/02/22 12:23:21;;;;;;;1.42;0.40;;;;;;;;;;4994818;28;20440;-57
2024/02/22 12:25:52;;;;;;;2.58;0.40;;;;;;;;;;5008143;28;20034;-58
2024/02/22 12:28:18;;;;;;;1.55;0.40;;;;;;;;;;5013850;28;20102;-57
2024/02/22 12:30:44;;;;;;;0.93;0.30;;;;;;;;;;5014048;28;20062;-56
2024/02/22 12:33:25;;;;;;;1.00;0.40;;;;;;;;;;5013746;28;20026;-59
2024/02/22 12:35:50;;;;;;;1.73;0.40;;;;;;;;;;5013755;28;20022;-57
2024/02/22 12:38:15;;;;;;;0.57;0.30;;;;;;;;;;5014271;28;20496;-57
2024/02/22 12:40:45;;;;;;;0.90;0.30;;;;;;;;;;5013878;28;20022;-57
2024/02/22 12:43:17;;;;;;;1.88;0.40;;;;;;;;;;5013664;28;20041;-56
2024/02/22 12:45:42;;;;;;;1.20;0.40;;;;;;;;;;5012268;28;20022;-57
2024/02/22 12:48:08;;;;;;;0.73;0.30;;;;;;;;;;5013949;28;20022;-58
2024/02/22 12:50:33;;;;;;;1.75;0.60;;;;;;;;;;5013384;28;20076;-57
2024/02/22 12:53:00;;;;;;;1.48;0.38;;;;;;;;;;5013050;28;20025;-56
2024/02/22 12:55:26;;;;;;;1.23;0.50;;;;;;;;;;5013304;28;20076;-57
2024/02/22 12:57:51;;;;;;;1.17;0.40;;;;;;;;;;5013895;28;20394;-57
2024/02/22 13:00:16;;;;;;;0.43;0.20;;;;;;;;;;5015867;28;20432;-57
2024/02/22 13:02:41;;;;;;;0.90;0.20;;;;;;;;;;5017275;28;20056;-57
2024/02/22 13:05:07;;;;;;;0.70;0.30;;;;;;;;;;5020926;28;20137;-57
2024/02/22 13:07:32;;;;;;;0.88;0.30;;;;;;;;;;5011573;28;20098;-58
2024/02/22 13:09:57;;;;;;;1.25;0.40;;;;;;;;;;5028406;28;20033;-58
2024/02/22 13:12:22;;;;;;;0.73;0.20;;;;;;;;;;5020969;28;20033;-59
2024/02/22 13:14:47;;;;;;;0.67;0.27;;;;;;;;;;5017829;28;20022;-57
2024/02/22 13:17:13;;;;;;;1.00;0.30;;;;;;;;;;5017436;28;20030;-57
2024/02/22 13:19:38;;;;;;;1.73;0.40;;;;;;;;;;5017592;28;20054;-58
2024/02/22 13:22:05;;;;;;;4.47;0.80;;;;;;;;;;5018411;28;20018;-58
2024/02/22 13:24:32;;;;;;;1.80;0.30;;;;;;;;;;5016094;28;20032;-58
2024/02/22 13:26:57;;;;;;;1.05;0.40;;;;;;;;;;5014168;28;20104;-57
2024/02/22 13:29:22;;;;;;;1.00;0.38;;;;;;;;;;5014668;28;20061;-58
2024/02/22 13:31:48;;;;;;;1.58;0.40;;;;;;;;;;4998127;28;20037;-57
2024/02/22 13:34:13;;;;;;;1.27;0.40;;;;;;;;;;4995527;28;20026;-57
2024/02/22 13:36:38;;;;;;;1.57;0.40;;;;;;;;;;4996054;28;20080;-57
2024/02/22 13:39:03;;;;;;;5.43;1.60;;;;;;;;;;4995137;28;20022;-57
2024/02/22 13:41:29;;;;;;;1.70;0.50;;;;;;;;;;4994468;28;20393;-58
2024/02/22 13:43:54;;;;;;;1.90;0.60;;;;;;;;;;4996460;28;20231;-57
2024/02/22 13:46:20;;;;;;;2.63;0.40;;;;;;;;;;5009352;28;20581;-60
2024/02/22 13:48:47;;;;;;;1.42;0.30;;;;;;;;;;4994529;28;20058;-58
2024/02/22 13:51:12;;;;;;;1.23;0.40;;;;;;;;;;4994050;28;20022;-57
2024/02/22 13:53:38;;;;;;;0.90;0.40;;;;;;;;;;4993934;28;20018;-58
2024/02/22 13:56:03;;;;;;;1.40;0.20;;;;;;;;;;4994149;28;20113;-58
2024/02/22 13:58:32;;;;;;;1.27;0.40;;;;;;;;;;5009527;28;20050;-58
2024/02/22 14:00:57;;;;;;;0.80;0.40;;;;;;;;;;4993291;28;20026;-57
2024/02/22 14:03:22;;;;;;;1.03;0.30;;;;;;;;;;4993160;28;20027;-56
2024/02/22 14:05:47;;;;;;;1.70;0.40;;;;;;;;;;4993488;28;20425;-57
2024/02/22 14:08:13;;;;;;;1.63;0.50;;;;;;;;;;4994298;28;20075;-59
2024/02/22 14:10:39;;;;;;;1.70;0.70;;;;;;;;;;4993893;28;20493;-58
2024/02/22 14:13:04;;;;;;;1.75;0.60;;;;;;;;;;4992321;28;20022;-57
2024/02/22 14:15:29;;;;;;;1.67;0.60;;;;;;;;;;4992872;28;20034;-59
2024/02/22 14:17:54;;;;;;;1.20;0.40;;;;;;;;;;4993255;28;20046;-57
2024/02/22 14:20:20;;;;;;;1.60;0.50;;;;;;;;;;4993267;28;20022;-57
2024/02/22 14:22:46;;;;;;;0.80;0.40;;;;;;;;;;4992341;28;20022;-56
2024/02/22 14:25:12;;;;;;;1.63;0.40;;;;;;;;;;4992588;28;20018;-56
2024/02/22 14:27:37;;;;;;;1.83;0.60;;;;;;;;;;4992677;28;20121;-57
2024/02/22 14:30:05;;;;;;;1.42;0.50;;;;;;;;;;4992568;28;20092;-58
2024/02/22 14:32:30;;;;;;;1.70;0.50;;;;;;;;;;4992727;28;20031;-57
2024/02/22 14:34:57;;;;;;;1.40;0.45;;;;;;;;;;4991936;28;20509;-56